createdAt,value
2019-02-04T00:00:48.658Z,18.03
2019-02-04T00:03:30.352Z,18.67
2019-02-04T00:06:11.802Z,21.73
2019-02-04T00:08:52.811Z,15.70
2019-02-04T00:11:34.041Z,20.73
2019-02-04T00:14:03.351Z,19.97
2019-02-04T00:16:51.849Z,17.17
2019-02-04T00:19:40.256Z,20.37
2019-02-04T00:22:21.220Z,26.03
2019-02-04T00:25:02.766Z,15.60
2019-02-04T00:27:44.150Z,22.90
2019-02-04T00:30:25.655Z,21.47
2019-02-04T00:33:07.211Z,21.13
2019-02-04T00:35:48.740Z,17.23
2019-02-04T00:38:30.221Z,18.60
2019-02-04T00:40:59.756Z,21.27
2019-02-04T00:43:48.322Z,17.23
2019-02-04T00:46:37.032Z,16.97
2019-02-04T00:49:17.963Z,22.50
2019-02-04T00:51:59.376Z,21.07
2019-02-04T00:54:40.143Z,20.07
2019-02-04T00:57:21.665Z,16.70
2019-02-04T01:00:02.354Z,24.10
2019-02-04T01:02:43.048Z,20.87
2019-02-04T01:05:12.586Z,19.20
2019-02-04T01:08:01.088Z,19.90
2019-02-04T01:10:41.948Z,19.23
2019-02-04T01:13:23.031Z,19.93
2019-02-04T01:16:04.310Z,22.03
2019-02-04T01:18:45.678Z,18.43
2019-02-04T01:21:26.794Z,18.37
2019-02-04T01:24:08.096Z,20.67
2019-02-04T01:26:37.639Z,21.40
2019-02-04T01:29:26.001Z,16.67
2019-02-04T01:32:07.064Z,19.43
2019-02-04T01:34:48.959Z,19.37
2019-02-04T01:37:29.909Z,16.93
2019-02-04T01:40:10.714Z,19.77
2019-02-04T01:42:51.940Z,21.60
2019-02-04T01:45:33.441Z,20.60
2019-02-04T01:48:14.690Z,23.50
2019-02-04T01:50:55.627Z,24.30
2019-02-04T01:53:36.689Z,20.47
2019-02-04T01:56:18.047Z,21.80
2019-02-04T01:58:59.161Z,16.10
2019-02-04T02:01:40.377Z,24.83
2019-02-04T02:04:21.862Z,17.03
2019-02-04T02:07:03.311Z,17.40
2019-02-04T02:09:44.699Z,22.83
2019-02-04T02:12:26.001Z,21.80
2019-02-04T02:15:07.233Z,18.63
2019-02-04T02:17:48.641Z,20.13
2019-02-04T02:20:29.442Z,19.60
2019-02-04T02:23:10.314Z,16.03
2019-02-04T02:25:51.018Z,16.13
2019-02-04T02:28:22.482Z,16.50
2019-02-04T02:31:10.946Z,15.07
2019-02-04T02:33:59.437Z,20.87
2019-02-04T02:36:40.687Z,16.00
2019-02-04T02:39:21.991Z,18.53
2019-02-04T02:42:03.812Z,19.07
2019-02-04T02:44:45.219Z,20.03
2019-02-04T02:47:37.830Z,16.33
2019-02-04T02:49:57.616Z,19.33
2019-02-04T02:52:45.966Z,22.53
2019-02-04T02:55:26.936Z,23.57
2019-02-04T02:58:07.913Z,18.50
2019-02-04T03:00:49.317Z,16.63
2019-02-04T03:03:30.486Z,14.73
2019-02-04T03:06:11.616Z,14.97
2019-02-04T03:08:52.337Z,19.57
2019-02-04T03:11:32.999Z,21.63
2019-02-04T03:14:12.662Z,19.00
2019-02-04T03:16:53.535Z,22.27
2019-02-04T03:19:34.239Z,20.57
2019-02-04T03:22:14.913Z,17.57
2019-02-04T03:24:56.228Z,18.90
2019-02-04T03:27:37.610Z,14.37
2019-02-04T03:30:19.204Z,13.73
2019-02-04T03:33:00.298Z,18.00
2019-02-04T03:35:41.879Z,18.17
2019-02-04T03:38:22.568Z,12.67
2019-02-04T03:41:05.502Z,19.57
2019-02-04T03:43:47.129Z,17.03
2019-02-04T03:46:28.208Z,15.53
2019-02-04T03:49:09.425Z,11.73
2019-02-04T03:51:50.177Z,14.57
2019-02-04T03:54:31.820Z,19.00
2019-02-04T03:57:13.143Z,13.87
2019-02-04T03:59:57.010Z,15.13
2019-02-04T04:02:36.773Z,15.57
2019-02-04T04:05:17.908Z,12.33
2019-02-04T04:07:59.556Z,16.53
2019-02-04T04:10:41.173Z,15.20
2019-02-04T04:13:22.291Z,16.97
2019-02-04T04:16:03.597Z,18.03
2019-02-04T04:18:44.919Z,18.20
2019-02-04T04:21:26.221Z,18.87
2019-02-04T04:24:07.761Z,22.13
2019-02-04T04:26:37.200Z,16.43
2019-02-04T04:29:25.603Z,17.13
2019-02-04T04:32:14.026Z,20.10
2019-02-04T04:34:55.355Z,19.67
2019-02-04T04:37:36.766Z,24.10
2019-02-04T04:40:17.466Z,20.60
2019-02-04T04:42:58.624Z,19.17
2019-02-04T04:45:39.702Z,18.27
2019-02-04T04:48:26.593Z,17.67
2019-02-04T04:51:02.233Z,25.97
2019-02-04T04:53:50.925Z,22.93
2019-02-04T04:56:39.446Z,20.13
2019-02-04T04:59:20.582Z,20.80
2019-02-04T05:02:01.837Z,19.77
2019-02-04T05:04:42.424Z,18.60
2019-02-04T05:07:23.774Z,17.90
2019-02-04T05:10:05.107Z,20.90
2019-02-04T05:12:46.185Z,19.70
2019-02-04T05:15:27.293Z,12.97
2019-02-04T05:18:08.422Z,20.63
2019-02-04T05:20:38.045Z,18.87
2019-02-04T05:23:07.163Z,19.37
2019-02-04T05:25:55.770Z,20.80
2019-02-04T05:28:44.163Z,19.17
2019-02-04T05:31:25.204Z,20.90
2019-02-04T05:34:05.843Z,20.53
2019-02-04T05:36:46.437Z,19.60
2019-02-04T05:39:26.021Z,19.17
2019-02-04T05:42:06.713Z,20.47
2019-02-04T05:44:48.021Z,19.43
2019-02-04T05:47:28.783Z,18.97
2019-02-04T05:50:10.118Z,17.27
2019-02-04T05:52:51.539Z,20.93
2019-02-04T05:55:21.777Z,18.63
2019-02-04T05:57:50.960Z,17.97
2019-02-04T06:00:58.348Z,18.43
2019-02-04T06:03:46.926Z,18.90
2019-02-04T06:06:27.588Z,19.10
2019-02-04T06:09:08.526Z,17.83
2019-02-04T06:11:37.811Z,19.53
2019-02-04T06:14:08.843Z,16.07
2019-02-04T06:16:50.113Z,16.00
2019-02-04T06:19:31.361Z,14.30
2019-02-04T06:22:12.117Z,19.27
2019-02-04T06:24:53.301Z,16.37
2019-02-04T06:27:34.643Z,14.83
2019-02-04T06:30:15.489Z,20.47
2019-02-04T06:32:56.648Z,17.03
2019-02-04T06:35:37.708Z,15.80
2019-02-04T06:38:18.510Z,17.67
2019-02-04T06:40:59.903Z,16.77
2019-02-04T06:43:41.233Z,19.77
2019-02-04T06:46:22.383Z,15.50
2019-02-04T06:49:12.104Z,16.93
2019-02-04T06:51:45.770Z,17.07
2019-02-04T06:54:27.222Z,17.73
2019-02-04T06:57:07.894Z,18.73
2019-02-04T06:59:38.189Z,15.50
2019-02-04T07:02:07.315Z,14.57
2019-02-04T07:04:55.806Z,15.77
2019-02-04T07:07:44.451Z,21.87
2019-02-04T07:10:25.649Z,19.43
2019-02-04T07:13:06.508Z,16.20
2019-02-04T07:15:47.784Z,11.90
2019-02-04T07:18:28.986Z,14.53
2019-02-04T07:21:10.263Z,16.03
2019-02-04T07:23:51.479Z,16.23
2019-02-04T07:26:32.588Z,18.70
2019-02-04T07:29:13.916Z,15.63
2019-02-04T07:31:55.295Z,17.83
2019-02-04T07:34:35.943Z,15.20
2019-02-04T07:37:16.829Z,14.83
2019-02-04T07:39:46.370Z,15.03
2019-02-04T07:42:34.705Z,14.73
2019-02-04T07:45:23.242Z,18.03
2019-02-04T07:48:06.131Z,15.87
2019-02-04T07:50:49.591Z,18.83
2019-02-04T07:53:31.024Z,18.53
2019-02-04T07:56:00.418Z,15.53
2019-02-04T07:58:49.698Z,14.07
2019-02-04T08:01:38.196Z,17.57
2019-02-04T08:04:08.612Z,15.50
2019-02-04T08:06:57.169Z,13.50
2019-02-04T08:09:45.870Z,17.73
2019-02-04T08:12:34.342Z,12.00
2019-02-04T08:15:24.086Z,13.93
2019-02-04T08:18:12.502Z,14.67
2019-02-04T08:20:53.291Z,13.97
2019-02-04T08:23:34.968Z,13.83
2019-02-04T08:26:16.362Z,13.70
2019-02-04T08:28:57.689Z,14.43
2019-02-04T08:31:39.182Z,14.63
2019-02-04T08:34:20.333Z,16.63
2019-02-04T08:37:01.757Z,15.23
2019-02-04T08:39:42.404Z,17.30
2019-02-04T08:42:23.445Z,10.90
2019-02-04T08:45:11.850Z,14.43
2019-02-04T08:47:53.055Z,9.53
2019-02-04T08:50:34.031Z,15.83
2019-02-04T08:53:15.461Z,11.30
2019-02-04T08:55:44.669Z,12.20
2019-02-04T09:01:08.346Z,13.10
2019-02-04T09:03:50.571Z,14.23
2019-02-04T09:06:31.475Z,13.83
2019-02-04T09:09:12.454Z,11.70
2019-02-04T09:11:54.073Z,8.90
2019-02-04T09:14:34.724Z,11.83
2019-02-04T09:17:16.030Z,13.07
2019-02-04T09:20:09.419Z,12.13
2019-02-04T09:22:40.908Z,14.57
2019-02-04T09:25:21.512Z,11.83
2019-02-04T09:28:03.062Z,11.87
2019-02-04T09:30:43.546Z,12.10
2019-02-04T09:33:24.248Z,12.07
2019-02-04T09:36:05.144Z,10.33
2019-02-04T09:38:45.762Z,13.53
2019-02-04T09:41:26.932Z,16.30
2019-02-04T09:44:08.616Z,11.37
2019-02-04T09:46:50.020Z,10.67
2019-02-04T09:49:30.615Z,11.30
2019-02-04T09:52:12.181Z,14.53
2019-02-04T09:54:53.350Z,13.30
2019-02-04T09:57:35.916Z,15.93
2019-02-04T10:00:21.050Z,10.47
2019-02-04T10:03:01.851Z,10.63
2019-02-04T10:05:42.577Z,10.30
2019-02-04T10:08:23.821Z,15.97
2019-02-04T10:11:05.017Z,13.50
2019-02-04T10:13:46.209Z,10.03
2019-02-04T10:16:27.278Z,12.00
2019-02-04T10:19:08.702Z,10.83
2019-02-04T10:21:49.286Z,13.60
2019-02-04T10:24:30.417Z,13.90
2019-02-04T10:27:12.838Z,10.87
2019-02-04T10:29:55.074Z,10.70
2019-02-04T10:32:40.771Z,11.23
2019-02-04T10:35:29.217Z,14.00
2019-02-04T10:38:10.473Z,12.30
2019-02-04T10:40:52.056Z,11.83
2019-02-04T10:43:32.747Z,12.77
2019-02-04T10:46:13.791Z,14.20
2019-02-04T10:48:55.035Z,15.17
2019-02-04T10:51:35.584Z,14.67
2019-02-04T10:54:16.395Z,11.27
2019-02-04T10:56:57.414Z,13.93
2019-02-04T11:02:50.803Z,13.27
2019-02-04T11:05:32.410Z,13.67
2019-02-04T11:08:13.871Z,14.20
2019-02-04T11:11:03.772Z,13.13
2019-02-04T11:13:45.564Z,12.77
2019-02-04T11:16:26.587Z,17.70
2019-02-04T11:19:07.876Z,11.40
2019-02-04T11:21:49.239Z,14.90
2019-02-04T11:24:30.577Z,15.20
2019-02-04T11:27:12.226Z,15.70
2019-02-04T11:29:53.789Z,20.67
2019-02-04T11:32:36.014Z,16.03
2019-02-04T11:35:17.337Z,12.87
2019-02-04T11:37:58.952Z,11.70
2019-02-04T11:40:39.942Z,16.17
2019-02-04T11:43:21.266Z,10.67
2019-02-04T11:46:01.833Z,19.53
2019-02-04T11:48:43.485Z,21.00
2019-02-04T11:51:26.926Z,19.40
2019-02-04T11:54:09.354Z,21.60
2019-02-04T11:56:49.921Z,22.87
2019-02-04T11:59:30.688Z,20.73
2019-02-04T12:02:12.070Z,20.53
2019-02-04T12:04:53.328Z,20.33
2019-02-04T12:07:34.395Z,22.60
2019-02-04T12:10:15.628Z,20.67
2019-02-04T12:12:56.240Z,23.10
2019-02-04T12:15:40.147Z,18.83
2019-02-04T12:18:09.383Z,20.37
2019-02-04T12:20:39.935Z,23.30
2019-02-04T12:23:28.654Z,21.10
2019-02-04T12:26:18.681Z,21.87
2019-02-04T12:28:59.333Z,19.37
2019-02-04T12:31:40.617Z,21.03
2019-02-04T12:34:22.102Z,20.00
2019-02-04T12:37:03.797Z,17.07
2019-02-04T12:39:44.627Z,20.03
2019-02-04T12:42:25.503Z,16.97
2019-02-04T12:45:14.183Z,14.37
2019-02-04T12:48:02.479Z,18.53
2019-02-04T12:50:43.590Z,18.90
2019-02-04T12:53:32.268Z,15.63
2019-02-04T12:56:13.618Z,18.00
2019-02-04T12:58:55.903Z,21.17
2019-02-04T13:01:37.319Z,24.27
2019-02-04T13:04:18.708Z,19.73
2019-02-04T13:07:00.119Z,20.37
2019-02-04T13:09:41.455Z,16.77
2019-02-04T13:12:22.850Z,17.93
2019-02-04T13:15:03.996Z,17.87
2019-02-04T13:17:45.290Z,19.70
2019-02-04T13:20:22.791Z,25.80
2019-02-04T13:23:11.079Z,16.50
2019-02-04T13:25:59.697Z,17.83
2019-02-04T13:28:42.122Z,16.80
2019-02-04T13:31:22.934Z,15.43
2019-02-04T13:34:04.267Z,24.20
2019-02-04T13:36:45.374Z,23.50
2019-02-04T13:39:26.551Z,23.80
2019-02-04T13:42:09.735Z,27.40
2019-02-04T13:44:50.404Z,24.77
2019-02-04T13:47:31.873Z,24.70
2019-02-04T13:50:13.113Z,21.30
2019-02-04T13:52:54.443Z,26.67
2019-02-04T13:55:37.896Z,27.23
2019-02-04T13:58:21.535Z,25.83
2019-02-04T14:01:01.628Z,28.67
2019-02-04T14:03:30.851Z,27.20
2019-02-04T14:06:19.163Z,22.90
2019-02-04T14:09:02.212Z,26.23
2019-02-04T14:11:44.258Z,22.00
2019-02-04T14:14:24.888Z,23.33
2019-02-04T14:17:06.063Z,20.23
2019-02-04T14:19:46.730Z,25.57
2019-02-04T14:22:27.690Z,20.97
2019-02-04T14:25:08.750Z,22.60
2019-02-04T14:27:49.913Z,25.03
2019-02-04T14:30:30.937Z,19.77
2019-02-04T14:33:12.530Z,21.73
2019-02-04T14:35:53.345Z,18.60
2019-02-04T14:38:34.355Z,21.23
2019-02-04T14:41:04.731Z,19.73
2019-02-04T14:43:54.950Z,19.53
2019-02-04T14:46:36.265Z,23.83
2019-02-04T14:49:17.623Z,19.43
2019-02-04T14:51:59.089Z,19.67
2019-02-04T14:54:40.548Z,24.07
2019-02-04T14:57:21.885Z,22.47
2019-02-04T15:00:00.928Z,19.10
2019-02-04T15:03:19.481Z,22.37
2019-02-04T15:05:52.960Z,16.00
2019-02-04T15:08:34.000Z,15.40
2019-02-04T15:11:15.031Z,19.07
2019-02-04T15:13:56.900Z,25.43
2019-02-04T15:16:38.127Z,14.73
2019-02-04T15:19:45.722Z,13.37
2019-02-04T15:22:40.926Z,20.23
2019-02-04T15:25:24.072Z,26.70
2019-02-04T15:28:31.742Z,25.47
2019-02-04T15:31:12.719Z,26.50
2019-02-04T15:34:05.931Z,29.53
2019-02-04T15:37:13.507Z,21.20
2019-02-04T15:39:54.373Z,25.53
2019-02-04T15:42:34.969Z,24.73
2019-02-04T15:45:26.206Z,23.67
2019-02-04T15:48:33.851Z,24.93
2019-02-04T15:51:27.887Z,28.03
2019-02-04T15:57:22.385Z,29.43
2019-02-04T16:00:03.523Z,24.47
2019-02-04T16:02:45.053Z,30.37
2019-02-04T16:05:26.559Z,27.27
2019-02-04T16:08:07.905Z,25.00
2019-02-04T16:10:49.359Z,32.13
2019-02-04T16:13:31.297Z,31.27
2019-02-04T16:16:12.310Z,25.20
2019-02-04T16:18:43.829Z,25.23
2019-02-04T16:21:34.316Z,24.40
2019-02-04T16:24:15.643Z,27.17
2019-02-04T16:26:56.758Z,26.30
2019-02-04T16:29:26.476Z,26.60
2019-02-04T16:35:03.036Z,28.77
2019-02-04T16:37:44.910Z,28.37
2019-02-04T16:40:26.320Z,27.33
2019-02-04T16:43:07.442Z,27.63
2019-02-04T16:45:48.843Z,26.20
2019-02-04T16:48:18.063Z,25.70
2019-02-04T16:51:11.557Z,26.50
2019-02-04T16:56:42.543Z,22.60
2019-02-04T16:59:23.871Z,23.43
2019-02-04T17:01:53.121Z,24.13
2019-02-04T17:04:41.663Z,35.03
2019-02-04T17:07:23.313Z,36.20
2019-02-04T17:10:04.395Z,37.40
2019-02-04T17:12:45.857Z,37.77
2019-02-04T17:15:15.486Z,38.07
2019-02-04T17:18:05.568Z,39.70
2019-02-04T17:20:48.349Z,43.13
2019-02-04T17:23:29.410Z,40.20
2019-02-04T17:26:10.677Z,41.53
2019-02-04T17:28:52.262Z,43.93
2019-02-04T17:31:33.692Z,45.67
2019-02-04T17:34:14.798Z,45.00
2019-02-04T17:36:56.174Z,44.03
2019-02-04T17:39:37.678Z,42.53
2019-02-04T17:42:18.304Z,49.37
2019-02-04T17:44:59.526Z,45.40
2019-02-04T17:47:40.747Z,45.67
2019-02-04T17:50:21.542Z,47.53
2019-02-04T17:53:02.830Z,48.33
2019-02-04T17:55:44.424Z,48.50
2019-02-04T17:58:32.971Z,43.10
2019-02-04T18:01:21.525Z,43.13
2019-02-04T18:04:03.005Z,44.03
2019-02-04T18:06:44.212Z,46.13
2019-02-04T18:09:25.493Z,50.77
2019-02-04T18:12:06.950Z,47.90
2019-02-04T18:14:37.131Z,49.80
2019-02-04T18:17:06.361Z,54.13
2019-02-04T18:19:54.785Z,54.23
2019-02-04T18:22:43.347Z,53.97
2019-02-04T18:25:24.601Z,53.63
2019-02-04T18:28:05.333Z,51.70
2019-02-04T18:30:47.089Z,49.80
2019-02-04T18:33:17.472Z,53.93
2019-02-04T18:36:05.904Z,46.30
2019-02-04T18:38:54.435Z,52.77
2019-02-04T18:41:35.923Z,45.37
2019-02-04T18:44:17.370Z,45.40
2019-02-04T18:46:58.389Z,40.10
2019-02-04T18:49:38.992Z,48.87
2019-02-04T18:52:19.564Z,47.87
2019-02-04T18:55:00.324Z,49.00
2019-02-04T18:57:41.710Z,52.73
2019-02-04T19:00:23.166Z,50.40
2019-02-04T19:03:03.690Z,56.23
2019-02-04T19:05:45.150Z,54.67
2019-02-04T19:08:26.322Z,51.67
2019-02-04T19:11:07.459Z,54.27
2019-02-04T19:13:49.114Z,54.57
2019-02-04T19:16:18.427Z,58.23
2019-02-04T19:19:06.781Z,51.40
2019-02-04T19:21:55.104Z,54.17
2019-02-04T19:24:40.501Z,57.87
2019-02-04T19:27:21.971Z,62.23
2019-02-04T19:30:03.291Z,36.73
2019-02-04T19:32:44.717Z,58.67
2019-02-04T19:35:26.087Z,60.23
2019-02-04T19:37:56.058Z,55.33
2019-02-04T19:40:44.947Z,60.10
2019-02-04T19:43:15.860Z,47.27
2019-02-04T19:46:24.718Z,49.20
2019-02-04T19:49:05.961Z,278.63
2019-02-04T19:51:47.171Z,56.70
2019-02-04T19:54:28.408Z,66.00
2019-02-04T19:57:09.802Z,67.60
2019-02-04T19:59:51.128Z,75.43
2019-02-04T20:02:32.176Z,74.90
2019-02-04T20:05:13.042Z,71.90
2019-02-04T20:07:54.330Z,75.50
2019-02-04T20:10:35.934Z,74.57
2019-02-04T20:13:17.175Z,84.40
2019-02-04T20:15:58.232Z,77.70
2019-02-04T20:18:39.687Z,81.13
2019-02-04T20:21:21.146Z,75.33
2019-02-04T20:24:00.977Z,78.03
2019-02-04T20:26:49.327Z,81.10
2019-02-04T20:29:30.048Z,80.33
2019-02-04T20:32:09.617Z,87.23
2019-02-04T20:34:51.104Z,85.40
2019-02-04T20:37:32.347Z,78.87
2019-02-04T20:40:13.853Z,67.93
2019-02-04T20:42:55.272Z,83.27
2019-02-04T20:45:36.899Z,81.77
2019-02-04T20:48:18.317Z,80.63
2019-02-04T20:50:48.443Z,81.50
2019-02-04T20:53:36.900Z,86.70
2019-02-04T20:56:06.076Z,88.17
2019-02-04T20:58:54.810Z,86.83
2019-02-04T21:01:37.242Z,91.50
2019-02-04T21:04:18.514Z,88.10
2019-02-04T21:06:59.882Z,90.47
2019-02-04T21:09:41.137Z,94.90
2019-02-04T21:12:22.220Z,95.57
2019-02-04T21:15:03.712Z,89.57
2019-02-04T21:17:45.018Z,87.77
2019-02-04T21:23:24.478Z,97.60
2019-02-04T21:26:06.903Z,95.20
2019-02-04T21:28:48.006Z,98.07
2019-02-04T21:31:29.439Z,96.53
2019-02-04T21:34:10.408Z,99.20
2019-02-04T21:36:51.525Z,102.20
2019-02-04T21:39:33.018Z,105.07
2019-02-04T21:42:14.592Z,109.30
2019-02-04T21:44:55.519Z,103.53
2019-02-04T21:47:36.871Z,104.93
2019-02-04T21:50:18.213Z,107.10
2019-02-04T21:52:59.733Z,103.37
2019-02-04T21:55:40.526Z,111.57
2019-02-04T21:58:21.888Z,107.37
2019-02-04T22:01:10.438Z,116.03
2019-02-04T22:03:58.908Z,111.60
2019-02-04T22:06:40.423Z,107.40
2019-02-04T22:12:19.082Z,114.47
2019-02-04T22:18:01.141Z,115.37
2019-02-04T22:20:41.708Z,112.17
2019-02-04T22:23:22.708Z,111.70
2019-02-04T22:26:11.396Z,109.97
2019-02-04T22:28:43.196Z,109.43
2019-02-04T22:31:31.714Z,107.60
2019-02-04T22:34:12.723Z,117.63
2019-02-04T22:36:54.100Z,122.47
2019-02-04T22:39:35.598Z,110.83
2019-02-04T22:42:17.068Z,116.90
2019-02-04T22:44:57.685Z,117.27
2019-02-04T22:47:38.607Z,117.60
2019-02-04T22:50:29.763Z,116.87
2019-02-04T22:53:18.455Z,117.77
2019-02-04T22:55:59.164Z,115.60
2019-02-04T22:58:40.501Z,115.67
2019-02-04T23:01:21.864Z,116.73
2019-02-04T23:04:03.207Z,116.80
2019-02-04T23:06:44.055Z,119.43
2019-02-04T23:09:24.958Z,116.73
2019-02-04T23:12:05.807Z,115.37
2019-02-04T23:14:47.243Z,121.43
2019-02-04T23:17:28.036Z,122.10
2019-02-04T23:20:08.986Z,127.70
2019-02-04T23:22:50.461Z,121.20
2019-02-04T23:25:42.639Z,124.43
2019-02-04T23:28:14.157Z,126.13
2019-02-04T23:30:55.454Z,127.20
2019-02-04T23:33:36.792Z,123.43
2019-02-04T23:36:17.440Z,123.57
2019-02-04T23:38:58.772Z,124.80
2019-02-04T23:41:40.234Z,134.17
2019-02-04T23:44:21.357Z,131.53
2019-02-04T23:47:02.348Z,127.20
2019-02-04T23:49:43.803Z,125.90
2019-02-04T23:52:24.855Z,129.80
2019-02-04T23:55:06.168Z,134.17
2019-02-04T23:57:47.481Z,133.63
